CheckWX is a tool to help pilots better visualize weather data.  It is not intended as a substitute for an official pre-flight weather briefing.

07:34:45 UTC

7L2 METAR
Linton Municipal Airport
Linton, North Dakota, USA
Current

20 mins ago

K7L2 060715Z AUTO 00000KT 10SM OVC015 M05/M08 A3032 RMK AO2
Observed
Dec-6 @ 07:15 UTC
Visibility
10 SM
Flight Rules
MVFR
Cloud Levels
  • Overcast at 1,500' AGL
Temperature
-5°C / 23°F
Dewpoint
-8°C / 18°F
Humidity
80%
Altimeter
30.32" Hg
Pressure
1026.72 hPa
Previous

40 mins ago

K7L2 060655Z AUTO 00000KT 10SM OVC016 M04/M08 A3032 RMK AO2
Observed
Dec-6 @ 06:55 UTC
Visibility
10 SM
Flight Rules
MVFR
Cloud Levels
  • Overcast at 1,600' AGL
Temperature
-4°C / 25°F
Dewpoint
-8°C / 18°F
Humidity
74%
Altimeter
30.32" Hg
Pressure
1026.72 hPa
Previous

60 mins ago

K7L2 060635Z AUTO 00000KT 10SM OVC016 M04/M08 A3033 RMK AO2
Observed
Dec-6 @ 06:35 UTC
Visibility
10 SM
Flight Rules
MVFR
Cloud Levels
  • Overcast at 1,600' AGL
Temperature
-4°C / 25°F
Dewpoint
-8°C / 18°F
Humidity
74%
Altimeter
30.33" Hg
Pressure
1027.12 hPa